createdAt,value
2022-10-05T00:00:18.397Z,923.2
2022-10-05T00:02:02.072Z,921.6
2022-10-05T00:03:45.762Z,920
2022-10-05T00:05:29.437Z,920.2
2022-10-05T00:07:13.153Z,915.1
2022-10-05T00:08:56.841Z,913
2022-10-05T00:10:40.598Z,907
2022-10-05T00:12:24.287Z,902
2022-10-05T00:14:07.955Z,901.3
2022-10-05T00:15:51.651Z,899.8
2022-10-05T00:17:35.332Z,897.4
2022-10-05T00:19:19.116Z,894.6
2022-10-05T00:21:02.804Z,890.5
2022-10-05T00:22:46.488Z,887.8
2022-10-05T00:24:30.166Z,882.5
2022-10-05T00:26:13.848Z,885.2
2022-10-05T00:27:57.662Z,885.5
2022-10-05T00:29:41.326Z,882.1
2022-10-05T00:31:25.013Z,876.3
2022-10-05T00:33:08.686Z,874.5
2022-10-05T00:34:52.374Z,873.6
2022-10-05T00:36:36.130Z,872
2022-10-05T00:38:19.786Z,867.3
2022-10-05T00:40:03.572Z,861.9
2022-10-05T00:41:47.217Z,862.1
2022-10-05T00:43:30.904Z,863.4
2022-10-05T00:45:14.571Z,861.9
2022-10-05T00:46:58.300Z,861.5
2022-10-05T00:48:42.020Z,857.4
2022-10-05T00:50:25.772Z,858
2022-10-05T00:52:09.410Z,857.5
2022-10-05T00:53:53.096Z,857.5
2022-10-05T00:55:36.801Z,855.7
2022-10-05T00:57:20.574Z,851.8
2022-10-05T00:59:04.186Z,850.7
2022-10-05T01:00:47.950Z,848.1
2022-10-05T01:02:31.624Z,845.9
2022-10-05T01:04:15.355Z,842.5
2022-10-05T01:05:59.004Z,841.7
2022-10-05T01:07:42.752Z,836.8
2022-10-05T01:09:26.497Z,835
2022-10-05T01:11:10.147Z,834.3
2022-10-05T01:12:53.824Z,832.6
2022-10-05T01:14:37.516Z,832.7
2022-10-05T01:16:21.209Z,831.7
2022-10-05T01:18:04.909Z,832.8
2022-10-05T01:19:48.666Z,829.7
2022-10-05T01:21:32.351Z,825.6
2022-10-05T01:23:16.038Z,822.6
2022-10-05T01:24:59.708Z,822.1
2022-10-05T01:26:43.413Z,822.9
2022-10-05T01:28:27.129Z,822.3
2022-10-05T01:30:10.873Z,819.4
2022-10-05T01:31:54.554Z,814.6
2022-10-05T01:33:38.241Z,814.2
2022-10-05T01:35:21.935Z,813.7
2022-10-05T01:37:05.635Z,813.7
2022-10-05T01:38:49.427Z,811
2022-10-05T01:40:33.086Z,804.5
2022-10-05T01:42:16.764Z,800.6
2022-10-05T01:44:00.438Z,798.5
2022-10-05T01:45:44.180Z,797.3
2022-10-05T01:47:27.853Z,795.5
2022-10-05T01:49:11.599Z,797.1
2022-10-05T01:50:55.282Z,792.6
2022-10-05T01:52:38.962Z,785.7
2022-10-05T01:54:22.675Z,785.5
2022-10-05T01:56:06.390Z,785.4
2022-10-05T01:57:50.070Z,785.3
2022-10-05T01:59:33.802Z,783.9
2022-10-05T02:01:17.483Z,783.9
2022-10-05T02:03:01.201Z,783.5
2022-10-05T02:04:44.886Z,784
2022-10-05T02:06:28.566Z,783
2022-10-05T02:08:12.278Z,779.8
2022-10-05T02:09:56.006Z,778.3
2022-10-05T02:11:39.700Z,778.6
2022-10-05T02:13:23.379Z,776.9
2022-10-05T02:15:07.078Z,777.4
2022-10-05T02:16:50.798Z,776.4
2022-10-05T02:18:34.535Z,774.1
2022-10-05T02:20:18.819Z,770.9
2022-10-05T02:22:01.897Z,770
2022-10-05T02:23:45.599Z,767.5
2022-10-05T02:25:29.308Z,767.6
2022-10-05T02:27:12.990Z,766.8
2022-10-05T02:28:56.739Z,763.9
2022-10-05T02:30:40.420Z,762.5
2022-10-05T02:32:24.108Z,760.5
2022-10-05T02:34:07.805Z,759.4
2022-10-05T02:35:51.511Z,757.8
2022-10-05T02:37:35.279Z,755.1
2022-10-05T02:39:18.943Z,753.5
2022-10-05T02:41:02.623Z,750.1
2022-10-05T02:42:46.313Z,746.4
2022-10-05T02:44:30.031Z,742.1
2022-10-05T02:46:13.790Z,742.2
2022-10-05T02:47:57.468Z,741.9
2022-10-05T02:49:41.155Z,742
2022-10-05T02:51:24.882Z,746.3
2022-10-05T02:53:08.533Z,746.2
2022-10-05T02:54:52.250Z,745.7
2022-10-05T02:56:35.990Z,741.1
2022-10-05T02:58:19.672Z,741.3
2022-10-05T03:00:03.358Z,742.2
2022-10-05T03:01:47.057Z,743.2
2022-10-05T03:03:30.751Z,743.9
2022-10-05T03:05:14.533Z,743.1
2022-10-05T03:06:58.196Z,742.5
2022-10-05T03:08:41.882Z,743.4
2022-10-05T03:10:25.557Z,741.7
2022-10-05T03:12:09.256Z,741.1
2022-10-05T03:13:52.965Z,742.3
2022-10-05T03:15:36.666Z,744.1
2022-10-05T03:17:20.404Z,744.6
2022-10-05T03:19:04.091Z,746.1
2022-10-05T03:20:47.768Z,748.6
2022-10-05T03:22:31.458Z,745.3
2022-10-05T03:24:15.158Z,743.4
2022-10-05T03:25:58.854Z,740
2022-10-05T03:27:42.607Z,738.8
2022-10-05T03:29:26.286Z,736.3
2022-10-05T03:31:09.966Z,735.1
2022-10-05T03:32:53.676Z,728.9
2022-10-05T03:34:37.449Z,729.5
2022-10-05T03:36:21.133Z,730.5
2022-10-05T03:38:04.813Z,731.4
2022-10-05T03:39:48.490Z,733
2022-10-05T03:41:32.184Z,731.7
2022-10-05T03:43:15.890Z,731.8
2022-10-05T03:44:59.588Z,731.2
2022-10-05T03:46:43.337Z,728.7
2022-10-05T03:48:27.016Z,730.3
2022-10-05T03:50:10.702Z,731.4
2022-10-05T03:51:54.414Z,732
2022-10-05T03:53:38.098Z,731.5
2022-10-05T03:55:21.858Z,727.7
2022-10-05T03:57:05.546Z,723.1
2022-10-05T03:58:49.219Z,720.9
2022-10-05T04:00:32.909Z,715.8
2022-10-05T04:02:16.609Z,712.8
2022-10-05T04:04:00.369Z,714.5
2022-10-05T04:05:44.119Z,716.9
2022-10-05T04:07:27.749Z,717.3
2022-10-05T04:09:11.423Z,716.7
2022-10-05T04:10:55.128Z,718.2
2022-10-05T04:12:38.828Z,715.2
2022-10-05T04:14:22.519Z,714.8
2022-10-05T04:16:06.267Z,711.8
2022-10-05T04:17:49.949Z,711.2
2022-10-05T04:19:33.633Z,711.1
2022-10-05T04:21:17.312Z,712.8
2022-10-05T04:23:01.021Z,711.1
2022-10-05T04:24:44.719Z,707.2
2022-10-05T04:26:28.480Z,703.2
2022-10-05T04:28:12.156Z,701.9
2022-10-05T04:29:55.852Z,699.4
2022-10-05T04:31:39.542Z,698.8
2022-10-05T04:33:23.321Z,700.9
2022-10-05T04:35:07.012Z,701.9
2022-10-05T04:36:50.677Z,698.6
2022-10-05T04:38:34.367Z,699.8
2022-10-05T04:40:18.088Z,698.5
2022-10-05T04:42:01.761Z,698.6
2022-10-05T04:43:45.475Z,695.6
2022-10-05T04:45:29.203Z,694.7
2022-10-05T04:47:12.883Z,694.2
2022-10-05T04:48:56.614Z,692
2022-10-05T04:50:40.246Z,689.6
2022-10-05T04:52:23.968Z,687.5
2022-10-05T04:54:07.755Z,683.4
2022-10-05T04:55:51.418Z,683.5
2022-10-05T04:57:35.089Z,683.4
2022-10-05T04:59:18.773Z,685
2022-10-05T05:01:02.479Z,687.3
2022-10-05T05:02:46.167Z,688.4
2022-10-05T05:04:29.934Z,688.8
2022-10-05T05:06:13.616Z,688.6
2022-10-05T05:07:57.305Z,687.6
2022-10-05T05:09:40.999Z,685.7
2022-10-05T05:11:24.715Z,684.6
2022-10-05T05:13:08.392Z,682.7
2022-10-05T05:14:52.147Z,680.9
2022-10-05T05:16:35.831Z,682.2
2022-10-05T05:18:19.508Z,682.8
2022-10-05T05:20:03.187Z,684.5
2022-10-05T05:21:46.900Z,681.7
2022-10-05T05:23:30.593Z,681.8
2022-10-05T05:25:14.348Z,681.4
2022-10-05T05:26:58.032Z,677.4
2022-10-05T05:28:41.711Z,676.6
2022-10-05T05:30:25.410Z,677.9
2022-10-05T05:32:09.120Z,675.3
2022-10-05T05:33:52.804Z,674.2
2022-10-05T05:35:36.553Z,674.1
2022-10-05T05:37:20.272Z,673.1
2022-10-05T05:39:03.920Z,675.2
2022-10-05T05:40:47.602Z,674.9
2022-10-05T05:42:31.325Z,676.4
2022-10-05T05:44:15.090Z,679.9
2022-10-05T05:45:58.824Z,681.7
2022-10-05T05:47:42.459Z,680.9
2022-10-05T05:49:26.139Z,683.3
2022-10-05T05:51:09.819Z,682.3
2022-10-05T05:52:53.537Z,681.7
2022-10-05T05:56:20.982Z,677.9
2022-10-05T05:58:04.667Z,677.3
2022-10-05T05:59:48.346Z,675.6
2022-10-05T06:01:32.049Z,675.3
2022-10-05T06:03:15.861Z,677.7
2022-10-05T06:04:59.500Z,678
2022-10-05T06:06:43.166Z,676.2
2022-10-05T06:08:26.875Z,673.4
2022-10-05T06:10:10.586Z,672.1
2022-10-05T06:11:54.243Z,671.8
2022-10-05T06:13:37.966Z,669.3
2022-10-05T06:17:05.529Z,664.8
2022-10-05T06:18:49.184Z,664.1
2022-10-05T06:20:32.777Z,665.5
2022-10-05T06:22:16.470Z,666.9
2022-10-05T06:24:00.223Z,665
2022-10-05T06:25:43.935Z,662.8
2022-10-05T06:27:27.719Z,660.9
2022-10-05T06:29:11.369Z,660.8
2022-10-05T06:30:55.075Z,660.3
2022-10-05T06:32:38.719Z,659.3
2022-10-05T06:34:22.418Z,654.7
2022-10-05T06:36:06.102Z,654.3
2022-10-05T06:37:49.838Z,655.7
2022-10-05T06:39:33.507Z,655.2
2022-10-05T06:41:17.324Z,651.7
2022-10-05T06:43:00.875Z,651.8
2022-10-05T06:44:44.679Z,654.6
2022-10-05T06:46:28.352Z,656.3
2022-10-05T06:48:12.082Z,656.5
2022-10-05T06:49:55.721Z,658.2
2022-10-05T06:51:39.462Z,657.5
2022-10-05T06:53:23.177Z,658.9
2022-10-05T06:55:07.075Z,657
2022-10-05T06:56:50.577Z,654
2022-10-05T06:58:34.233Z,650.4
2022-10-05T07:00:18.009Z,651.3
2022-10-05T07:02:01.686Z,653.9
2022-10-05T07:03:45.293Z,654.7
2022-10-05T07:05:29.033Z,656.8
2022-10-05T07:07:12.731Z,661.8
2022-10-05T07:08:56.414Z,666.6
2022-10-05T07:10:40.190Z,667
2022-10-05T07:12:23.814Z,664.4
2022-10-05T07:14:07.614Z,660.7
2022-10-05T07:15:51.279Z,661.8
2022-10-05T07:17:34.952Z,663.5
2022-10-05T07:19:18.610Z,665.9
2022-10-05T07:21:02.352Z,669.1
2022-10-05T07:22:46.146Z,676.1
2022-10-05T07:24:29.766Z,680.8
2022-10-05T07:26:13.450Z,682.2
2022-10-05T07:27:57.180Z,681.8
2022-10-05T07:29:40.864Z,683.7
2022-10-05T07:31:24.529Z,685.8
2022-10-05T07:33:08.237Z,686.2
2022-10-05T07:34:51.965Z,683.6
2022-10-05T07:36:35.653Z,686.9
2022-10-05T07:38:19.330Z,686.3
2022-10-05T07:40:03.018Z,682.4
2022-10-05T07:41:46.728Z,681.8
2022-10-05T07:43:30.421Z,680.6
2022-10-05T07:45:14.281Z,676.9
2022-10-05T07:46:57.966Z,677.5
2022-10-05T07:48:41.632Z,680.5
2022-10-05T07:50:25.230Z,682.1
2022-10-05T07:52:08.924Z,684.7
2022-10-05T07:53:52.695Z,685.9
2022-10-05T07:55:36.382Z,690.2
2022-10-05T07:57:20.150Z,693
2022-10-05T07:59:03.801Z,697.6
2022-10-05T08:00:47.522Z,696.9
2022-10-05T08:02:31.260Z,696.4
2022-10-05T08:04:14.934Z,701.1
2022-10-05T08:05:58.581Z,704
2022-10-05T08:07:42.400Z,706.4
2022-10-05T08:09:26.082Z,712
2022-10-05T08:11:09.675Z,719.4
2022-10-05T08:12:53.536Z,731.4
2022-10-05T08:14:37.278Z,741.5
2022-10-05T08:16:20.901Z,753.6
2022-10-05T08:18:04.530Z,763
2022-10-05T08:19:48.250Z,773
2022-10-05T08:21:31.874Z,778.5
2022-10-05T08:23:15.675Z,778.9
2022-10-05T08:24:59.311Z,774.6
2022-10-05T08:26:43.094Z,770.7
2022-10-05T08:28:26.691Z,771.4
2022-10-05T08:30:10.370Z,776.6
2022-10-05T08:31:54.178Z,786.8
2022-10-05T08:33:37.872Z,798.7
2022-10-05T08:35:21.640Z,810.4
2022-10-05T08:37:05.194Z,813.5
2022-10-05T08:38:48.951Z,811.1
2022-10-05T08:40:32.606Z,785.4
2022-10-05T08:42:16.298Z,780.6
2022-10-05T08:44:00.045Z,797
2022-10-05T08:45:43.727Z,808.4
2022-10-05T08:47:27.415Z,809.3
2022-10-05T08:49:11.144Z,803.1
2022-10-05T08:50:54.801Z,800.4
2022-10-05T08:52:38.622Z,797.9
2022-10-05T08:54:22.294Z,792.5
2022-10-05T08:56:05.972Z,791.6
2022-10-05T08:57:49.624Z,794
2022-10-05T08:59:33.330Z,790.2
2022-10-05T09:01:17.039Z,790.1
2022-10-05T09:03:00.771Z,792
2022-10-05T09:04:44.458Z,794
2022-10-05T09:06:28.235Z,795.7
2022-10-05T09:08:11.857Z,793.8
2022-10-05T09:09:55.545Z,796.3
2022-10-05T09:11:39.344Z,796.2
2022-10-05T09:13:23.360Z,791.9
2022-10-05T09:15:06.677Z,789.8
2022-10-05T09:16:50.357Z,790.8
2022-10-05T09:18:34.040Z,789.7
2022-10-05T09:20:17.830Z,790.8
2022-10-05T09:22:01.593Z,788.2
2022-10-05T09:23:45.257Z,786.5
2022-10-05T09:25:28.884Z,787.3
2022-10-05T09:27:12.581Z,788.8
2022-10-05T09:28:56.248Z,793.4
2022-10-05T09:30:40.075Z,798.2
2022-10-05T09:32:23.740Z,799.4
2022-10-05T09:34:07.419Z,800.9
2022-10-05T09:35:51.064Z,804.9
2022-10-05T09:37:34.762Z,803.6
2022-10-05T09:39:18.452Z,807.4
2022-10-05T09:41:02.154Z,807.2
2022-10-05T09:42:45.905Z,808.4
2022-10-05T09:44:29.643Z,809.2
2022-10-05T09:46:13.310Z,807.2
2022-10-05T09:47:56.960Z,807.7
2022-10-05T09:49:40.747Z,811.6
2022-10-05T09:51:24.369Z,817.1
2022-10-05T09:53:08.124Z,822.6
2022-10-05T09:54:51.794Z,826.7
2022-10-05T09:56:35.611Z,830.1
2022-10-05T09:58:19.204Z,833.7
2022-10-05T10:00:02.888Z,836.4
2022-10-05T10:01:46.645Z,841.1
2022-10-05T10:03:30.347Z,843.2
2022-10-05T10:05:13.997Z,841.4
2022-10-05T10:06:57.804Z,841.5
2022-10-05T10:08:41.414Z,840.7
2022-10-05T10:10:25.101Z,844.1
2022-10-05T10:12:08.974Z,846.4
2022-10-05T10:13:52.603Z,849.6
2022-10-05T10:15:36.222Z,850.6
2022-10-05T10:17:19.920Z,851.5
2022-10-05T10:19:03.622Z,856.1
2022-10-05T10:20:47.368Z,862.2
2022-10-05T10:22:31.134Z,864.8
2022-10-05T10:24:14.737Z,867.4
2022-10-05T10:25:58.492Z,868.9
2022-10-05T10:27:42.227Z,869.3
2022-10-05T10:29:25.896Z,872.5
2022-10-05T10:31:09.571Z,877.3
2022-10-05T10:32:53.358Z,879.6
2022-10-05T10:34:36.948Z,879.5
2022-10-05T10:36:20.676Z,880.7
2022-10-05T10:38:04.435Z,885.1
2022-10-05T10:39:48.030Z,889.7
2022-10-05T10:41:31.814Z,889.4
2022-10-05T10:43:15.457Z,890.8
2022-10-05T10:44:59.176Z,890
2022-10-05T10:46:42.836Z,890.8
2022-10-05T10:48:26.645Z,892.2
2022-10-05T10:50:10.301Z,897.7
2022-10-05T10:51:53.996Z,898.8
2022-10-05T10:53:37.714Z,903.7
2022-10-05T10:55:21.342Z,908.7
2022-10-05T10:57:05.078Z,917.9
2022-10-05T10:58:48.885Z,925.3
2022-10-05T11:00:32.509Z,924.4
2022-10-05T11:02:16.313Z,929.6
2022-10-05T11:03:59.880Z,932.7
2022-10-05T11:05:43.578Z,932.1
2022-10-05T11:07:27.271Z,934.6
2022-10-05T11:09:11.030Z,935.6
2022-10-05T11:10:54.708Z,940.3
2022-10-05T11:12:38.411Z,943.4
2022-10-05T11:14:22.115Z,948.3
2022-10-05T11:16:05.782Z,952.1
2022-10-05T11:17:49.484Z,955.6
2022-10-05T11:19:33.282Z,959.2
2022-10-05T11:21:16.923Z,963.2
2022-10-05T11:23:00.598Z,964.8
2022-10-05T11:24:44.334Z,967.4
2022-10-05T11:26:28.003Z,973.4
2022-10-05T11:28:11.743Z,976.5
2022-10-05T11:29:55.514Z,975.7
2022-10-05T11:31:39.139Z,974.5
2022-10-05T11:33:22.927Z,974.8
2022-10-05T11:35:06.558Z,980.7
2022-10-05T11:36:50.350Z,986.7
2022-10-05T11:38:33.964Z,988.6
2022-10-05T11:40:17.641Z,977
2022-10-05T11:42:01.444Z,965.6
2022-10-05T11:43:45.109Z,961.2
2022-10-05T11:45:28.873Z,961.1
2022-10-05T11:47:12.568Z,960.6
2022-10-05T11:48:56.237Z,962
2022-10-05T11:50:39.896Z,961.5
2022-10-05T11:52:23.609Z,964.2
2022-10-05T11:54:07.286Z,969.9
2022-10-05T11:55:51.052Z,979.2
2022-10-05T11:57:34.742Z,989.2
2022-10-05T11:59:18.399Z,1024
2022-10-05T12:01:02.051Z,1043.8
2022-10-05T12:02:45.775Z,1059.1
2022-10-05T12:04:29.463Z,1061.8
2022-10-05T12:06:13.273Z,1080.9
2022-10-05T12:07:56.909Z,1082.5
2022-10-05T12:09:40.622Z,1085.3
2022-10-05T12:11:24.325Z,1087.4
2022-10-05T12:13:08.031Z,1087.3
2022-10-05T12:14:51.722Z,1087.8
2022-10-05T12:16:35.367Z,1087.3
2022-10-05T12:18:19.101Z,1089.3
2022-10-05T12:20:02.832Z,1100.5
2022-10-05T12:21:46.465Z,1107.2
2022-10-05T12:23:30.174Z,1111.2
2022-10-05T12:25:13.881Z,1105.5
2022-10-05T12:26:57.632Z,1094.7
2022-10-05T12:28:41.304Z,1064.4
2022-10-05T12:30:24.993Z,1039.8
2022-10-05T12:32:08.685Z,1041.4
2022-10-05T12:33:52.422Z,1062
2022-10-05T12:35:36.077Z,1081.3
2022-10-05T12:37:19.837Z,1089.9
2022-10-05T12:39:03.521Z,1095.8
2022-10-05T12:40:47.196Z,1101.7
2022-10-05T12:42:30.888Z,1110.9
2022-10-05T12:44:14.601Z,1117.6
2022-10-05T12:45:58.354Z,1117.8
2022-10-05T12:47:42.044Z,1117.9
2022-10-05T12:49:25.718Z,1117.3
2022-10-05T12:51:09.397Z,1119.2
2022-10-05T12:52:53.097Z,1121.8
2022-10-05T12:54:36.800Z,1128.7
2022-10-05T12:56:20.570Z,1127.9
2022-10-05T12:58:04.298Z,1133.5
2022-10-05T12:59:47.920Z,1144.2
2022-10-05T13:01:31.617Z,1147.3
2022-10-05T13:03:15.355Z,1140.8
2022-10-05T13:04:59.093Z,1104.9
2022-10-05T13:06:42.768Z,1001.8
2022-10-05T13:08:26.480Z,915.1
2022-10-05T13:10:10.229Z,871.5
2022-10-05T13:11:53.834Z,857.8
2022-10-05T13:13:37.526Z,839.3
2022-10-05T13:15:21.219Z,776.6
2022-10-05T13:17:04.975Z,753.7
2022-10-05T13:18:48.662Z,746.1
2022-10-05T13:20:32.330Z,737
2022-10-05T13:22:16.024Z,716.5
2022-10-05T13:23:59.729Z,695
2022-10-05T13:25:43.427Z,682.1
2022-10-05T13:27:27.173Z,660.5
2022-10-05T13:29:10.857Z,637.2
2022-10-05T13:30:54.533Z,590.9
2022-10-05T13:32:38.229Z,566.8
2022-10-05T13:34:21.915Z,559.2
2022-10-05T13:36:05.647Z,560.4
2022-10-05T13:37:49.374Z,553.9
2022-10-05T13:39:33.056Z,550.2
2022-10-05T13:41:16.777Z,544.4
2022-10-05T13:43:00.424Z,538.1
2022-10-05T13:44:44.157Z,535
2022-10-05T13:46:27.977Z,535.7
2022-10-05T13:48:11.587Z,538.1
2022-10-05T13:49:55.274Z,538.2
2022-10-05T13:51:38.976Z,533.2
2022-10-05T13:53:22.655Z,523.6
2022-10-05T13:55:06.363Z,513.1
2022-10-05T13:56:50.044Z,496
2022-10-05T13:58:33.795Z,484.9
2022-10-05T14:00:17.482Z,482.5
2022-10-05T14:02:01.147Z,480.7
2022-10-05T14:03:44.858Z,482
2022-10-05T14:05:28.633Z,473.8
2022-10-05T14:07:12.333Z,470.2
2022-10-05T14:08:56.080Z,463.3
2022-10-05T14:10:39.748Z,450.5
2022-10-05T14:12:23.365Z,444.5
2022-10-05T14:14:07.070Z,447.1
2022-10-05T14:15:50.750Z,453.2
2022-10-05T14:17:34.454Z,457.7
2022-10-05T14:19:18.220Z,463.6
2022-10-05T14:21:01.877Z,478.9
2022-10-05T14:22:45.559Z,488.3
2022-10-05T14:24:29.277Z,494.6
2022-10-05T14:26:12.971Z,543.6
2022-10-05T14:27:56.718Z,549.8
2022-10-05T14:29:40.518Z,550.1
2022-10-05T14:31:24.141Z,547
2022-10-05T14:33:07.792Z,551
2022-10-05T14:34:51.479Z,552.1
2022-10-05T14:36:35.170Z,552.1
2022-10-05T14:38:18.931Z,559.2
2022-10-05T14:40:02.608Z,564.5
2022-10-05T14:41:46.288Z,569.5
2022-10-05T14:43:29.991Z,578.6
2022-10-05T14:45:13.683Z,580.7
2022-10-05T14:46:57.520Z,587.6
2022-10-05T14:48:41.131Z,598.7
2022-10-05T14:50:24.814Z,592.5
2022-10-05T14:52:08.504Z,585.4
2022-10-05T14:53:52.195Z,578.5
2022-10-05T14:55:35.902Z,573.5
2022-10-05T14:57:19.712Z,579
2022-10-05T14:59:03.358Z,606.7
2022-10-05T15:00:47.023Z,610.4
2022-10-05T15:02:30.730Z,609.5
2022-10-05T15:04:14.443Z,608.4
2022-10-05T15:05:58.118Z,601.7
2022-10-05T15:07:41.866Z,598.5
2022-10-05T15:09:25.586Z,601.8
2022-10-05T15:11:09.225Z,602
2022-10-05T15:12:52.939Z,601.4
2022-10-05T15:14:36.629Z,600.5
2022-10-05T15:16:20.389Z,601.9
2022-10-05T15:18:04.066Z,603.8
2022-10-05T15:19:47.746Z,605.9
2022-10-05T15:21:31.447Z,607.5
2022-10-05T15:23:15.156Z,607.9
2022-10-05T15:24:58.844Z,611.5
2022-10-05T15:26:42.586Z,610.6
2022-10-05T15:28:26.290Z,606.3
2022-10-05T15:30:09.964Z,608.9
2022-10-05T15:31:53.661Z,621.2
2022-10-05T15:33:37.375Z,639.4
2022-10-05T15:35:21.114Z,654.9
2022-10-05T15:37:04.802Z,665.5
2022-10-05T15:38:48.485Z,666
2022-10-05T15:40:32.187Z,662.3
2022-10-05T15:42:15.887Z,667.3
2022-10-05T15:43:59.639Z,679.7
2022-10-05T15:45:43.318Z,684.3
2022-10-05T15:47:27.001Z,686.6
2022-10-05T15:49:10.741Z,690.8
2022-10-05T15:50:54.434Z,694.1
2022-10-05T15:52:38.158Z,700
2022-10-05T15:54:21.863Z,708.3
2022-10-05T15:56:05.530Z,725.2
2022-10-05T15:57:49.217Z,727.7
2022-10-05T15:59:32.922Z,729.4
2022-10-05T16:01:16.699Z,725.9
2022-10-05T16:03:00.369Z,722.3
2022-10-05T16:04:44.048Z,725.1
2022-10-05T16:06:27.755Z,732.1
2022-10-05T16:08:11.441Z,735.7
2022-10-05T16:09:55.151Z,739.5
2022-10-05T16:11:38.910Z,745
2022-10-05T16:13:22.574Z,748.7
2022-10-05T16:15:06.261Z,747.3
2022-10-05T16:16:49.957Z,746
2022-10-05T16:18:33.722Z,748.1
2022-10-05T16:20:17.421Z,750.9
2022-10-05T16:22:01.097Z,755.2
2022-10-05T16:23:44.784Z,761.1
2022-10-05T16:25:28.499Z,762.3
2022-10-05T16:27:12.157Z,762.5
2022-10-05T16:28:55.861Z,764.7
2022-10-05T16:30:39.617Z,767.1
2022-10-05T16:32:23.301Z,768.7
2022-10-05T16:34:07.079Z,774.5
2022-10-05T16:35:50.671Z,779
2022-10-05T16:37:34.383Z,777.5
2022-10-05T16:39:18.061Z,773.5
2022-10-05T16:41:01.760Z,772.9
2022-10-05T16:42:45.512Z,771.5
2022-10-05T16:44:29.183Z,767.3
2022-10-05T16:46:12.873Z,770.5
2022-10-05T16:47:56.579Z,782.6
2022-10-05T16:49:40.280Z,822.5
2022-10-05T16:51:24.058Z,839.8
2022-10-05T16:53:07.771Z,843.5
2022-10-05T16:54:51.393Z,845.6
2022-10-05T16:56:35.088Z,853.5
2022-10-05T16:58:18.797Z,863.8
2022-10-05T17:00:02.476Z,871.7
2022-10-05T17:01:46.278Z,876.3
2022-10-05T17:03:29.921Z,877.6
2022-10-05T17:05:13.603Z,882.9
2022-10-05T17:06:57.295Z,889.2
2022-10-05T17:08:40.992Z,894.5
2022-10-05T17:10:24.791Z,903.6
2022-10-05T17:12:08.446Z,905.4
2022-10-05T17:13:52.128Z,903.6
2022-10-05T17:15:35.808Z,908.7
2022-10-05T17:17:19.502Z,914.1
2022-10-05T17:19:03.203Z,921.4
2022-10-05T17:20:46.891Z,920.7
2022-10-05T17:22:30.645Z,913.9
2022-10-05T17:24:14.329Z,900.9
2022-10-05T17:25:58.017Z,890.6
2022-10-05T17:27:41.718Z,885.2
2022-10-05T17:29:25.411Z,885.3
2022-10-05T17:31:09.102Z,884.4
2022-10-05T17:32:52.853Z,884.7
2022-10-05T17:34:36.528Z,886.3
2022-10-05T17:36:20.225Z,889.6
2022-10-05T17:38:03.918Z,892.2
2022-10-05T17:39:47.630Z,893.1
2022-10-05T17:41:31.376Z,895.3
2022-10-05T17:43:15.052Z,898.8
2022-10-05T17:44:58.737Z,899.5
2022-10-05T17:46:42.436Z,904
2022-10-05T17:48:26.116Z,907.2
2022-10-05T17:50:09.813Z,908.7
2022-10-05T17:51:53.576Z,912.1
2022-10-05T17:53:37.287Z,915.5
2022-10-05T17:55:20.964Z,919.1
2022-10-05T17:57:04.629Z,929.4
2022-10-05T17:58:48.336Z,929.4
2022-10-05T18:00:32.041Z,932.1
2022-10-05T18:02:15.782Z,938.1
2022-10-05T18:03:59.462Z,945.2
2022-10-05T18:05:43.153Z,952
2022-10-05T18:07:26.833Z,957
2022-10-05T18:09:10.531Z,964.2
2022-10-05T18:10:54.236Z,969
2022-10-05T18:12:38.068Z,968.1
2022-10-05T18:14:21.689Z,970.5
2022-10-05T18:16:05.358Z,970.3
2022-10-05T18:17:49.050Z,975.3
2022-10-05T18:19:32.736Z,993.1
2022-10-05T18:21:16.430Z,997.7
2022-10-05T18:23:00.198Z,1007.2
2022-10-05T18:24:43.869Z,1009.3
2022-10-05T18:26:27.560Z,1010.6
2022-10-05T18:28:11.253Z,1015.2
2022-10-05T18:29:54.952Z,1016.1
2022-10-05T18:31:38.660Z,1016.4
2022-10-05T18:33:22.407Z,1021.6
2022-10-05T18:35:06.123Z,1025.6
2022-10-05T18:36:49.777Z,1027.2
2022-10-05T18:38:33.472Z,1028.8
2022-10-05T18:40:17.167Z,1034
2022-10-05T18:42:00.922Z,1039.5
2022-10-05T18:43:44.632Z,1045.8
2022-10-05T18:45:28.289Z,1042
2022-10-05T18:47:11.997Z,1044
2022-10-05T18:48:55.696Z,1050.6
2022-10-05T18:50:39.450Z,1054.2
2022-10-05T18:52:23.127Z,1054.8
2022-10-05T18:54:06.810Z,1061.7
2022-10-05T18:55:50.512Z,1067.4
2022-10-05T18:57:34.238Z,1066
2022-10-05T18:59:17.903Z,1064.1
2022-10-05T19:01:01.656Z,1063.9
2022-10-05T19:02:45.331Z,1066.3
2022-10-05T19:04:29.024Z,1068.3
2022-10-05T19:06:12.729Z,1064.7
2022-10-05T19:07:56.424Z,1062.5
2022-10-05T19:09:40.196Z,1066.7
2022-10-05T19:11:23.855Z,1072.3
2022-10-05T19:13:07.545Z,1074.6
2022-10-05T19:14:51.224Z,1076.4
2022-10-05T19:16:34.931Z,1081.7
2022-10-05T19:18:18.640Z,1087.7
2022-10-05T19:20:02.390Z,1095.3
2022-10-05T19:21:46.065Z,1100.3
2022-10-05T19:23:29.740Z,1104.6
2022-10-05T19:25:13.446Z,1110.5
2022-10-05T19:26:57.134Z,1108.9
2022-10-05T19:28:40.825Z,1103.5
2022-10-05T19:30:24.601Z,1098.8
2022-10-05T19:32:08.274Z,1095.5
2022-10-05T19:33:51.958Z,1093.3
2022-10-05T19:35:35.640Z,1090.5
2022-10-05T19:37:19.338Z,1091.8
2022-10-05T19:39:03.038Z,1092.9
2022-10-05T19:40:46.818Z,1097.6
2022-10-05T19:42:30.473Z,1103
2022-10-05T19:44:14.175Z,1103.3
2022-10-05T19:45:57.874Z,1109.3
2022-10-05T19:47:41.615Z,1113
2022-10-05T19:49:25.315Z,1113.7
2022-10-05T19:51:08.992Z,1115.8
2022-10-05T19:52:52.719Z,1116.1
2022-10-05T19:54:36.379Z,1113.5
2022-10-05T19:56:20.060Z,1116.6
2022-10-05T19:58:03.869Z,1115
2022-10-05T19:59:47.537Z,1120.5
2022-10-05T20:01:31.223Z,1126.4
2022-10-05T20:03:14.877Z,1136.4
2022-10-05T20:04:58.582Z,1130.4
2022-10-05T20:06:42.282Z,1123
2022-10-05T20:08:25.976Z,1122
2022-10-05T20:10:09.724Z,1120.6
2022-10-05T20:11:53.401Z,1124.6
2022-10-05T20:13:37.095Z,1129.7
2022-10-05T20:15:20.776Z,1141.7
2022-10-05T20:17:04.494Z,1163.4
2022-10-05T20:18:48.175Z,1188.4
2022-10-05T20:20:31.927Z,1216
2022-10-05T20:22:15.647Z,1237.5
2022-10-05T20:23:59.291Z,1245
2022-10-05T20:25:42.983Z,1245.7
2022-10-05T20:27:26.719Z,1249.1
2022-10-05T20:29:10.459Z,1249.8
2022-10-05T20:30:54.133Z,1245.2
2022-10-05T20:32:37.821Z,1240.1
2022-10-05T20:34:21.558Z,1236.2
2022-10-05T20:36:05.189Z,1234.6
2022-10-05T20:37:48.945Z,1232.6
2022-10-05T20:39:32.586Z,1232.6
2022-10-05T20:41:16.350Z,1234.5
2022-10-05T20:43:00.019Z,1235.1
2022-10-05T20:44:43.710Z,1239
2022-10-05T20:46:27.403Z,1241.7
2022-10-05T20:48:11.099Z,1241.5
2022-10-05T20:49:54.791Z,1240.1
2022-10-05T20:51:38.554Z,1238.4
2022-10-05T20:53:22.222Z,1239
2022-10-05T20:55:05.903Z,1233.3
2022-10-05T20:56:49.750Z,1228.1
2022-10-05T20:58:33.327Z,1226.3
2022-10-05T21:00:17.188Z,1224.9
2022-10-05T21:02:00.755Z,1224.5
2022-10-05T21:03:44.441Z,1226.4
2022-10-05T21:05:28.167Z,1229.1
2022-10-05T21:07:11.838Z,1228.3
2022-10-05T21:08:55.527Z,1228.9
2022-10-05T21:10:39.306Z,1231.8
2022-10-05T21:12:22.973Z,1234.3
2022-10-05T21:14:06.632Z,1232.1
2022-10-05T21:15:50.420Z,1233.8
2022-10-05T21:17:34.023Z,1237.3
2022-10-05T21:19:17.730Z,1240.6
2022-10-05T21:21:01.475Z,1238.4
2022-10-05T21:22:45.168Z,1243
2022-10-05T21:24:28.839Z,1242.3
2022-10-05T21:26:12.532Z,1242
2022-10-05T21:27:56.292Z,1239.2
2022-10-05T21:29:40.104Z,1230.5
2022-10-05T21:31:23.683Z,1225.9
2022-10-05T21:33:07.379Z,1220.1
2022-10-05T21:34:51.067Z,1214.3
2022-10-05T21:36:34.786Z,1209.7
2022-10-05T21:38:18.455Z,1207
2022-10-05T21:40:02.208Z,1200.1
2022-10-05T21:41:45.888Z,1191.1
2022-10-05T21:43:29.598Z,1183.1
2022-10-05T21:45:13.295Z,1170.4
2022-10-05T21:46:56.973Z,1145.3
2022-10-05T21:48:40.735Z,1132.5
2022-10-05T21:50:24.413Z,1124.4
2022-10-05T21:52:08.101Z,1118.8
2022-10-05T21:53:51.777Z,1110
2022-10-05T21:55:35.479Z,1103
2022-10-05T21:57:19.205Z,1098.1
2022-10-05T21:59:02.939Z,1092.2
2022-10-05T22:00:46.620Z,1087.4
2022-10-05T22:02:30.297Z,1081.3
2022-10-05T22:04:14.014Z,1072.8
2022-10-05T22:05:57.688Z,1064.6
2022-10-05T22:07:41.425Z,1059.9
2022-10-05T22:09:25.107Z,1056.1
2022-10-05T22:11:08.832Z,1050
2022-10-05T22:12:52.517Z,1045.9
2022-10-05T22:14:36.216Z,1039.8
2022-10-05T22:16:19.901Z,1035.4